Time;durP1;ratioP1;P1;durP2;ratioP2;P2;SDS_P1;SDS_P2;PMS_P1;PMS_P2;Temp;Humidity;BMP_temperature;BMP_pressure;BME280_temperature;BME280_humidity;BME280_pressure;Samples;Min_cycle;Max_cycle;Signal;HPM_P1;HPM_P2
2022/08/12 00:43:28;;;;;;;4.43;4.03;;;15.50;73.20;;;;;;5013720;28;20465;-65
2022/08/12 00:48:42;;;;;;;4.80;3.40;;;15.40;73.90;;;;;;5013253;28;20501;-65
2022/08/12 00:51:10;;;;;;;5.93;4.40;;;15.30;74.10;;;;;;5013675;28;20948;-65
2022/08/12 00:53:38;;;;;;;6.13;4.90;;;15.30;74.70;;;;;;5012962;28;20518;-66
2022/08/12 00:56:07;;;;;;;6.67;5.33;;;15.30;75.00;;;;;;5011391;28;20447;-65
2022/08/12 00:58:35;;;;;;;11.60;5.80;;;15.30;74.80;;;;;;5013612;28;20565;-66
2022/08/12 01:01:07;;;;;;;8.27;4.70;;;15.30;75.10;;;;;;5012949;28;21007;-66
2022/08/12 01:11:55;;;;;;;6.90;4.60;;;15.20;74.90;;;;;;5013371;28;20479;-65
2022/08/12 01:14:24;;;;;;;4.63;3.93;;;15.10;74.70;;;;;;5013306;28;20504;-66
2022/08/12 01:16:54;;;;;;;9.50;4.20;;;15.10;74.70;;;;;;5012782;28;20439;-65
2022/08/12 01:19:22;;;;;;;7.90;3.57;;;15.00;74.60;;;;;;5013249;28;20434;-65
2022/08/12 01:22:16;;;;;;;4.70;4.13;;;14.90;74.70;;;;;;5012391;28;20487;-65
2022/08/12 01:24:59;;;;;;;6.23;4.07;;;14.90;75.10;;;;;;5013029;28;20443;-65
2022/08/12 01:27:28;;;;;;;7.90;3.80;;;14.80;75.50;;;;;;5012953;28;20513;-66
2022/08/12 01:29:59;;;;;;;4.83;4.13;;;14.80;75.80;;;;;;5013203;28;20449;-68
2022/08/12 01:32:28;;;;;;;5.87;4.60;;;14.80;76.00;;;;;;5012874;28;20496;-66
2022/08/12 01:35:02;;;;;;;4.57;3.70;;;14.80;76.30;;;;;;5012865;28;20438;-65
2022/08/12 01:37:31;;;;;;;5.53;4.33;;;14.80;76.20;;;;;;5012673;28;20450;-65
2022/08/12 01:40:02;;;;;;;5.00;3.97;;;14.80;76.20;;;;;;5012824;28;20449;-65
2022/08/12 01:42:42;;;;;;;4.30;3.60;;;14.90;76.30;;;;;;5011708;28;20505;-65
2022/08/12 01:45:11;;;;;;;5.33;3.57;;;14.80;75.80;;;;;;5012626;28;20957;-66
2022/08/12 01:47:49;;;;;;;5.27;3.90;;;14.70;75.70;;;;;;5012432;28;20578;-66
2022/08/12 01:50:25;;;;;;;4.10;3.20;;;14.60;76.70;;;;;;5012774;28;21084;-65
2022/08/12 01:52:59;;;;;;;16.33;4.87;;;14.60;76.80;;;;;;5012585;28;20462;-66
2022/08/12 01:55:32;;;;;;;5.60;3.93;;;14.70;76.90;;;;;;5012635;28;20545;-66
2022/08/12 01:58:11;;;;;;;4.13;3.73;;;14.70;76.30;;;;;;5012566;28;20439;-66
2022/08/12 02:00:47;;;;;;;5.53;4.10;;;14.70;75.90;;;;;;5012106;28;20513;-66
2022/08/12 02:12:04;;;;;;;5.80;4.03;;;14.50;77.00;;;;;;4952105;29;20429;-65
2022/08/12 02:14:42;;;;;;;4.50;3.70;;;14.40;77.20;;;;;;4958285;28;20858;-65
2022/08/12 02:17:24;;;;;;;4.80;3.83;;;14.30;77.10;;;;;;5012204;28;20442;-66
2022/08/12 02:20:05;;;;;;;4.13;3.57;;;14.30;77.10;;;;;;5012425;28;20941;-65
2022/08/12 02:22:37;;;;;;;4.13;3.73;;;14.20;77.40;;;;;;4992654;28;21279;-66
2022/08/12 02:25:09;;;;;;;4.40;3.83;;;14.20;78.30;;;;;;4998559;28;20442;-66
2022/08/12 02:27:41;;;;;;;3.90;3.23;;;14.10;78.80;;;;;;5012349;28;20442;-66
2022/08/12 02:30:11;;;;;;;7.90;4.10;;;14.20;79.00;;;;;;5013188;28;20524;-65
2022/08/12 02:32:41;;;;;;;6.60;4.90;;;14.10;78.60;;;;;;5016291;28;20442;-66
2022/08/12 02:35:10;;;;;;;6.00;4.30;;;14.00;79.00;;;;;;5015758;28;20434;-66
2022/08/12 02:37:40;;;;;;;5.20;4.27;;;14.10;78.90;;;;;;5016288;28;20438;-66
2022/08/12 02:40:09;;;;;;;5.77;3.83;;;14.10;78.50;;;;;;5015622;28;20438;-66
2022/08/12 02:42:40;;;;;;;4.33;3.73;;;14.00;78.70;;;;;;5016024;28;20829;-66
2022/08/12 02:45:08;;;;;;;5.47;4.93;;;14.00;79.10;;;;;;5015177;28;20440;-66
2022/08/12 02:47:41;;;;;;;5.93;4.40;;;13.90;79.00;;;;;;5015890;28;20506;-66
2022/08/12 02:50:10;;;;;;;6.97;4.73;;;13.90;79.40;;;;;;5015533;28;20858;-65
2022/08/12 02:52:38;;;;;;;5.10;4.27;;;13.90;79.50;;;;;;5016096;28;20465;-66
2022/08/12 02:55:14;;;;;;;5.37;3.70;;;14.00;79.30;;;;;;5014792;28;20465;-67
2022/08/12 02:57:44;;;;;;;5.40;4.13;;;14.00;79.40;;;;;;5015836;28;20481;-66
2022/08/12 03:00:14;;;;;;;4.93;4.00;;;13.90;79.00;;;;;;5015162;28;20438;-65
2022/08/12 03:02:45;;;;;;;5.57;3.97;;;13.90;78.70;;;;;;5015185;28;20993;-65
2022/08/12 03:05:14;;;;;;;5.50;4.20;;;13.90;78.60;;;;;;5015217;28;20504;-66
2022/08/12 03:07:49;;;;;;;6.10;4.67;;;14.00;78.80;;;;;;5015605;28;20442;-66
2022/08/12 03:10:21;;;;;;;5.93;4.63;;;14.00;78.60;;;;;;5015160;28;20767;-65
2022/08/12 03:12:52;;;;;;;6.47;4.40;;;14.00;78.30;;;;;;5015603;28;20419;-66
2022/08/12 03:15:22;;;;;;;4.73;4.23;;;13.90;78.30;;;;;;5015010;28;20508;-66
2022/08/12 03:17:53;;;;;;;4.63;3.90;;;13.90;78.90;;;;;;5015636;28;20512;-66
2022/08/12 03:20:22;;;;;;;5.10;4.60;;;13.80;78.00;;;;;;5015222;28;20504;-65
2022/08/12 03:22:51;;;;;;;4.33;3.93;;;13.80;78.40;;;;;;5015403;28;20989;-66
2022/08/12 03:25:23;;;;;;;4.70;3.83;;;13.80;78.80;;;;;;5014857;28;20478;-66
2022/08/12 03:27:56;;;;;;;6.20;4.17;;;13.90;78.80;;;;;;5015242;28;20987;-66
2022/08/12 03:30:25;;;;;;;5.50;4.50;;;13.80;78.70;;;;;;5014750;28;20434;-66
2022/08/12 03:32:54;;;;;;;5.67;4.70;;;13.70;78.30;;;;;;5014974;28;20559;-65
2022/08/12 03:35:25;;;;;;;5.40;4.17;;;13.60;78.60;;;;;;5014921;28;20458;-66
2022/08/12 03:37:55;;;;;;;5.63;4.63;;;13.60;78.80;;;;;;5015183;28;20461;-66
2022/08/12 04:00:23;;;;;;;5.53;4.60;;;13.30;80.20;;;;;;4973258;28;20989;-65
2022/08/12 04:02:59;;;;;;;5.23;4.20;;;13.20;80.50;;;;;;4973475;28;20491;-66
2022/08/12 04:05:27;;;;;;;5.73;4.00;;;13.10;80.70;;;;;;4973819;28;20441;-68
2022/08/12 04:07:56;;;;;;;5.80;4.37;;;13.10;81.00;;;;;;4994212;28;20430;-65
2022/08/12 04:13:14;;;;;;;6.57;4.80;;;13.00;82.20;;;;;;5014929;28;20438;-65
2022/08/12 04:13:20;;;;;;;5.43;4.03;;;12.90;82.30;;;;;;5014208;28;20501;-65
2022/08/12 04:15:48;;;;;;;5.60;4.40;;;12.80;83.20;;;;;;5014923;28;20817;-65
2022/08/12 04:18:16;;;;;;;5.90;4.13;;;12.80;83.00;;;;;;5014412;28;20438;-65
2022/08/12 04:20:46;;;;;;;7.40;4.70;;;12.80;82.50;;;;;;5014513;28;20435;-65
2022/08/12 04:23:15;;;;;;;6.80;4.60;;;12.80;82.30;;;;;;5014016;28;20848;-66
2022/08/12 04:25:43;;;;;;;5.63;4.00;;;12.80;82.30;;;;;;5014646;28;20458;-65
2022/08/12 04:28:11;;;;;;;4.75;4.25;;;12.80;82.40;;;;;;5014292;28;20438;-66
2022/08/12 04:30:39;;;;;;;7.97;5.10;;;12.70;83.00;;;;;;5014669;28;20625;-66
2022/08/12 04:33:09;;;;;;;13.50;6.15;;;12.60;83.20;;;;;;5014098;28;20183;-65
2022/08/12 04:35:37;;;;;;;5.22;4.30;;;12.60;83.90;;;;;;5010824;28;20195;-65
2022/08/12 04:38:05;;;;;;;5.30;4.20;;;12.60;83.90;;;;;;5011279;28;20589;-67
2022/08/12 04:40:35;;;;;;;6.18;4.05;;;12.70;84.30;;;;;;5008202;28;20188;-66
2022/08/12 04:43:02;;;;;;;6.70;4.60;;;12.80;84.50;;;;;;5011808;28;20224;-65
2022/08/12 04:45:30;;;;;;;6.03;4.88;;;12.80;84.70;;;;;;5012594;28;20258;-65
2022/08/12 04:47:57;;;;;;;5.35;4.60;;;12.90;84.10;;;;;;5011345;28;20302;-65
2022/08/12 04:50:26;;;;;;;6.17;5.00;;;13.00;84.10;;;;;;5012417;28;20196;-65
2022/08/12 04:52:53;;;;;;;6.70;5.67;;;13.00;84.30;;;;;;5011085;28;20494;-66
2022/08/12 04:55:22;;;;;;;6.77;4.53;;;13.00;84.40;;;;;;5012223;28;20438;-66
2022/08/12 04:57:49;;;;;;;6.30;4.97;;;13.10;84.40;;;;;;5007900;28;20798;-65
2022/08/12 05:00:17;;;;;;;6.20;5.30;;;13.10;84.20;;;;;;5012380;28;20489;-65
2022/08/12 05:02:44;;;;;;;5.23;4.67;;;13.20;83.90;;;;;;5009676;28;20927;-65
2022/08/12 05:05:17;;;;;;;5.87;5.27;;;13.20;83.60;;;;;;5011567;28;20979;-67
2022/08/12 05:07:46;;;;;;;5.67;5.10;;;13.30;83.90;;;;;;5011200;28;20437;-65
2022/08/12 05:10:14;;;;;;;8.77;5.47;;;13.30;84.30;;;;;;5011960;28;20431;-65
2022/08/12 05:12:44;;;;;;;6.40;5.03;;;13.40;83.90;;;;;;5005418;28;20971;-66
2022/08/12 05:15:13;;;;;;;7.80;5.63;;;13.50;83.80;;;;;;5012082;28;20446;-65
2022/08/12 05:17:41;;;;;;;6.10;5.50;;;13.50;83.20;;;;;;5011686;28;20449;-65
2022/08/12 05:20:10;;;;;;;7.23;5.50;;;13.50;84.20;;;;;;5012063;28;20527;-66
2022/08/12 05:22:38;;;;;;;6.40;4.70;;;13.50;85.00;;;;;;5007366;28;20482;-65
2022/08/12 05:25:08;;;;;;;8.50;4.77;;;13.50;85.80;;;;;;5011714;28;21646;-65
2022/08/12 05:27:35;;;;;;;5.73;5.00;;;13.60;86.00;;;;;;5010720;28;20493;-68
2022/08/12 05:30:02;;;;;;;5.60;4.90;;;13.70;85.80;;;;;;5011495;28;20439;-65
2022/08/12 05:32:29;;;;;;;6.77;5.07;;;13.80;86.10;;;;;;5011008;28;20453;-65
2022/08/12 05:34:56;;;;;;;5.50;5.00;;;13.90;85.40;;;;;;5011046;28;20950;-65
2022/08/12 05:37:28;;;;;;;6.43;5.27;;;14.00;85.70;;;;;;5011423;28;20497;-67
2022/08/12 05:39:56;;;;;;;9.17;4.90;;;14.00;86.00;;;;;;5011521;28;20470;-66
2022/08/12 05:42:24;;;;;;;10.37;6.10;;;14.10;87.10;;;;;;5012203;28;21024;-66
2022/08/12 05:44:51;;;;;;;6.07;5.43;;;14.10;87.40;;;;;;5011391;28;20496;-66
2022/08/12 05:47:18;;;;;;;7.50;6.40;;;14.30;87.60;;;;;;5011287;28;20565;-65
2022/08/12 05:49:45;;;;;;;5.70;4.83;;;14.50;87.40;;;;;;5012059;28;20517;-65
2022/08/12 05:52:12;;;;;;;6.60;5.90;;;14.70;87.10;;;;;;5011903;28;20565;-66
2022/08/12 05:54:43;;;;;;;8.37;6.23;;;14.80;86.90;;;;;;5006898;28;20537;-66
2022/08/12 05:57:11;;;;;;;8.73;5.60;;;14.90;87.00;;;;;;5009528;28;20439;-67
2022/08/12 05:59:40;;;;;;;6.00;4.90;;;15.10;86.90;;;;;;5009914;28;20553;-66
2022/08/12 06:02:10;;;;;;;7.33;5.37;;;15.10;87.00;;;;;;5010843;28;20575;-65
2022/08/12 06:04:39;;;;;;;9.97;5.50;;;15.30;86.90;;;;;;5006883;28;20442;-66
2022/08/12 06:07:11;;;;;;;6.07;4.90;;;15.40;86.90;;;;;;5009206;28;20443;-65
2022/08/12 06:09:38;;;;;;;9.50;5.40;;;15.60;86.30;;;;;;5008470;28;20994;-65
2022/08/12 06:12:06;;;;;;;10.00;7.20;;;15.70;85.70;;;;;;5011083;28;20538;-65
2022/08/12 06:14:35;;;;;;;9.13;6.90;;;15.70;84.40;;;;;;5009645;28;20443;-66
2022/08/12 06:17:04;;;;;;;11.17;7.93;;;15.80;84.40;;;;;;5011279;28;20447;-66
2022/08/12 06:19:31;;;;;;;11.80;8.00;;;16.00;84.30;;;;;;5009843;28;20537;-65
2022/08/12 06:21:59;;;;;;;8.80;6.47;;;16.00;83.30;;;;;;5008980;28;20443;-67
2022/08/12 06:24:28;;;;;;;7.20;4.90;;;16.20;83.70;;;;;;5009420;28;20462;-65
2022/08/12 06:26:56;;;;;;;6.87;4.80;;;16.30;83.50;;;;;;5009606;28;20786;-66
2022/08/12 06:29:23;;;;;;;5.40;4.90;;;16.40;81.50;;;;;;5013023;28;20442;-66
2022/08/12 06:31:50;;;;;;;5.67;5.07;;;16.60;81.80;;;;;;5009434;28;20988;-65
2022/08/12 06:34:19;;;;;;;6.47;5.77;;;16.70;81.70;;;;;;5012582;28;20969;-65
2022/08/12 06:36:47;;;;;;;7.97;5.97;;;16.90;81.80;;;;;;5005521;28;20934;-67
2022/08/12 06:39:14;;;;;;;4.80;4.07;;;17.00;82.50;;;;;;5010876;28;20530;-65
2022/08/12 06:44:26;;;;;;;4.33;3.53;;;17.30;82.50;;;;;;5009976;28;20765;-66
2022/08/12 06:46:53;;;;;;;4.77;4.00;;;17.50;82.20;;;;;;5011733;28;20506;-66
2022/08/12 06:49:21;;;;;;;5.90;3.90;;;17.60;82.10;;;;;;5012767;28;20841;-65
2022/08/12 06:51:48;;;;;;;4.80;3.87;;;17.70;81.50;;;;;;5012551;28;20439;-66
2022/08/12 06:54:15;;;;;;;5.70;3.87;;;17.90;80.90;;;;;;5012416;28;20470;-66
2022/08/12 06:56:42;;;;;;;4.77;3.70;;;18.00;80.30;;;;;;5011642;28;20457;-65
2022/08/12 06:59:11;;;;;;;5.43;3.93;;;18.10;78.90;;;;;;5012192;28;20518;-66
2022/08/12 07:01:38;;;;;;;5.13;4.27;;;18.20;78.60;;;;;;5012689;28;20497;-66
2022/08/12 07:04:05;;;;;;;5.80;3.77;;;18.40;78.30;;;;;;5019935;28;20571;-66
2022/08/12 07:06:33;;;;;;;4.17;3.77;;;18.50;77.80;;;;;;5021254;28;20534;-66
2022/08/12 07:09:03;;;;;;;8.10;4.10;;;18.60;77.40;;;;;;5019627;28;20454;-66
2022/08/12 07:11:32;;;;;;;4.70;3.80;;;18.70;77.00;;;;;;5021947;28;20468;-66
2022/08/12 07:14:02;;;;;;;8.53;3.40;;;18.90;76.90;;;;;;5019368;28;20949;-66
2022/08/12 07:16:50;;;;;;;5.33;3.70;;;19.00;76.70;;;;;;5021829;28;20442;-66
2022/08/12 07:19:18;;;;;;;8.43;4.00;;;19.10;76.40;;;;;;5020116;28;20438;-66
2022/08/12 07:21:47;;;;;;;5.30;3.57;;;19.30;76.00;;;;;;5025677;28;20463;-66
2022/08/12 07:24:14;;;;;;;6.07;3.30;;;19.40;75.70;;;;;;5017549;28;20572;-66
2022/08/12 07:26:41;;;;;;;4.80;3.10;;;19.50;75.60;;;;;;5026863;28;20832;-66
2022/08/12 07:29:09;;;;;;;3.90;3.00;;;19.60;75.80;;;;;;5024698;28;20538;-66
2022/08/12 07:31:36;;;;;;;5.50;3.90;;;19.80;74.50;;;;;;5025250;28;20452;-66
2022/08/12 07:34:04;;;;;;;5.70;3.40;;;19.90;74.50;;;;;;5023908;28;20444;-66
2022/08/12 07:36:47;;;;;;;5.77;4.23;;;20.10;74.90;;;;;;5022286;28;20535;-66
2022/08/12 07:39:14;;;;;;;5.57;3.40;;;20.20;74.10;;;;;;5021047;28;20455;-66
2022/08/12 07:41:42;;;;;;;13.93;3.90;;;20.40;73.70;;;;;;5024542;28;20535;-66
2022/08/12 07:44:09;;;;;;;6.00;3.70;;;20.50;71.40;;;;;;5025001;28;20486;-66
2022/08/12 07:46:39;;;;;;;6.20;3.03;;;20.60;71.30;;;;;;5026148;28;20563;-67
2022/08/12 07:49:08;;;;;;;5.53;3.10;;;20.70;72.20;;;;;;5023564;28;20787;-66
2022/08/12 07:51:35;;;;;;;5.67;3.40;;;20.90;72.60;;;;;;5025495;28;20460;-66
2022/08/12 07:54:08;;;;;;;4.20;3.40;;;21.10;72.90;;;;;;5022514;28;20528;-67
2022/08/12 07:56:37;;;;;;;4.87;3.67;;;21.30;72.10;;;;;;5020520;28;20469;-66
2022/08/12 07:59:04;;;;;;;4.57;3.33;;;21.40;70.80;;;;;;5025439;28;20448;-66
2022/08/12 08:01:33;;;;;;;4.93;3.53;;;21.50;69.90;;;;;;5022954;28;21005;-66
2022/08/12 08:06:44;;;;;;;5.10;2.90;;;21.90;69.20;;;;;;5020072;28;20480;-66
2022/08/12 08:09:15;;;;;;;4.23;3.10;;;22.10;68.50;;;;;;5024159;28;20536;-66
2022/08/12 08:14:28;;;;;;;8.43;2.90;;;22.40;67.20;;;;;;5022744;28;20905;-66
2022/08/12 08:16:56;;;;;;;5.67;3.37;;;22.60;67.10;;;;;;5024223;28;20433;-67
2022/08/12 08:19:24;;;;;;;4.47;3.57;;;22.70;66.10;;;;;;5022275;28;20523;-67
2022/08/12 08:21:52;;;;;;;5.33;3.10;;;22.90;65.00;;;;;;5023002;28;20480;-66
2022/08/12 08:24:23;;;;;;;4.60;3.03;;;23.00;63.30;;;;;;5021998;28;20576;-66
2022/08/12 08:26:51;;;;;;;5.77;2.30;;;23.20;62.90;;;;;;5011780;28;20442;-66
2022/08/12 08:29:21;;;;;;;4.40;3.00;;;23.30;62.00;;;;;;5013276;28;20989;-67
2022/08/12 08:31:53;;;;;;;3.90;2.47;;;23.40;60.00;;;;;;5020025;28;20443;-67
2022/08/12 08:34:25;;;;;;;4.43;2.30;;;23.60;60.60;;;;;;5024016;28;20454;-66
2022/08/12 08:36:52;;;;;;;9.37;2.27;;;23.80;57.90;;;;;;5023097;28;20441;-66
2022/08/12 08:39:20;;;;;;;4.80;2.20;;;23.90;55.60;;;;;;5023186;28;20538;-66
2022/08/12 08:44:36;;;;;;;4.93;2.50;;;24.20;52.70;;;;;;5024077;28;20929;-66
2022/08/12 08:47:04;;;;;;;4.30;2.00;;;24.40;51.20;;;;;;5024213;28;20524;-66
2022/08/12 08:49:31;;;;;;;4.53;2.70;;;24.40;53.10;;;;;;5022278;28;20451;-66
2022/08/12 08:51:58;;;;;;;3.80;2.00;;;24.60;51.30;;;;;;5024536;28;20530;-66
2022/08/12 08:54:32;;;;;;;5.13;2.00;;;24.70;50.10;;;;;;5023083;28;20477;-66
2022/08/12 08:57:00;;;;;;;4.87;2.10;;;24.70;51.50;;;;;;5022779;28;20458;-68
2022/08/12 08:59:27;;;;;;;4.33;2.00;;;24.90;50.10;;;;;;5022877;28;20449;-67
2022/08/12 09:01:55;;;;;;;6.67;2.57;;;25.00;52.30;;;;;;5022812;28;20532;-66
2022/08/12 09:04:22;;;;;;;3.87;2.13;;;25.20;50.80;;;;;;5019071;28;20570;-66
2022/08/12 09:06:57;;;;;;;2.73;1.93;;;25.30;51.60;;;;;;5021325;28;20793;-67
2022/08/12 09:09:24;;;;;;;3.80;2.30;;;25.40;50.80;;;;;;5020705;28;20441;-66
2022/08/12 09:14:47;;;;;;;3.13;1.93;;;25.70;46.50;;;;;;4971539;28;20497;-66
2022/08/12 09:17:14;;;;;;;5.87;1.90;;;25.80;46.70;;;;;;5019173;28;20524;-66
2022/08/12 09:19:41;;;;;;;4.10;2.27;;;25.90;45.80;;;;;;5017394;28;20540;-66
2022/08/12 09:22:08;;;;;;;5.30;2.00;;;26.10;45.40;;;;;;5020218;28;20439;-66
2022/08/12 09:24:36;;;;;;;2.40;1.30;;;26.20;47.00;;;;;;5019792;28;21011;-66
2022/08/12 09:27:05;;;;;;;4.53;2.10;;;26.40;47.00;;;;;;5019471;28;20538;-66
2022/08/12 09:29:33;;;;;;;3.37;1.67;;;26.50;44.70;;;;;;5020763;28;20920;-66
2022/08/12 09:32:00;;;;;;;2.80;1.63;;;26.60;42.80;;;;;;5019488;28;20537;-66
2022/08/12 09:34:28;;;;;;;5.40;2.20;;;26.80;43.00;;;;;;5023441;28;20446;-66
2022/08/12 09:37:00;;;;;;;4.33;1.80;;;26.90;42.50;;;;;;5019732;28;20477;-66
2022/08/12 09:39:28;;;;;;;3.00;1.57;;;26.90;41.40;;;;;;5018404;28;20798;-66
2022/08/12 09:47:27;;;;;;;5.10;1.67;;;27.10;40.10;;;;;;5020278;28;20611;-67
2022/08/12 09:49:54;;;;;;;2.33;1.40;;;27.10;40.50;;;;;;5018785;28;20944;-67
2022/08/12 09:52:22;;;;;;;3.00;1.60;;;27.10;39.40;;;;;;5018755;28;20538;-66
2022/08/12 09:54:48;;;;;;;10.73;1.90;;;27.10;40.40;;;;;;5020080;28;20537;-66
2022/08/12 09:57:18;;;;;;;2.73;1.80;;;27.10;40.00;;;;;;5020050;28;20472;-65
2022/08/12 09:59:46;;;;;;;4.40;1.80;;;27.10;40.20;;;;;;5022478;28;20893;-66
2022/08/12 10:02:13;;;;;;;2.67;1.80;;;27.10;39.40;;;;;;5021360;28;20533;-65
2022/08/12 10:04:45;;;;;;;2.70;1.67;;;27.10;39.40;;;;;;5020811;28;20489;-66
2022/08/12 10:07:12;;;;;;;3.20;1.87;;;27.10;41.20;;;;;;5021709;28;20446;-66
2022/08/12 10:09:39;;;;;;;4.67;1.87;;;27.10;40.80;;;;;;5021583;28;20537;-65
2022/08/12 10:14:52;;;;;;;2.30;1.50;;;27.00;39.90;;;;;;5016683;28;20931;-66
2022/08/12 10:17:22;;;;;;;3.73;1.40;;;27.20;41.40;;;;;;5016406;28;20525;-65
2022/08/12 10:19:50;;;;;;;2.50;1.50;;;27.30;41.30;;;;;;5016117;28;20442;-65
2022/08/12 10:22:17;;;;;;;3.70;1.97;;;27.60;42.90;;;;;;5012081;28;20937;-66
2022/08/12 10:29:35;;;;;;;2.93;1.73;;;27.80;40.10;;;;;;5020188;28;20572;-66
2022/08/12 10:30:19;;;;;;;6.57;1.80;;;28.00;37.80;;;;;;5022013;28;20829;-66
2022/08/12 10:32:57;;;;;;;3.07;1.60;;;28.20;37.60;;;;;;5014589;28;20443;-66
2022/08/12 10:35:30;;;;;;;4.50;1.70;;;28.30;36.70;;;;;;5016518;28;20449;-66
2022/08/12 10:37:57;;;;;;;2.70;1.70;;;28.50;38.90;;;;;;5016016;28;20441;-67
2022/08/12 10:40:24;;;;;;;4.93;1.70;;;28.60;38.60;;;;;;5013908;28;20468;-66
2022/08/12 10:45:37;;;;;;;3.70;1.63;;;28.80;37.60;;;;;;5019600;28;20770;-66
2022/08/12 10:48:04;;;;;;;9.07;2.10;;;28.90;36.60;;;;;;5017120;28;20475;-66
2022/08/12 10:50:31;;;;;;;3.60;1.87;;;29.10;37.80;;;;;;5020983;28;20546;-67
2022/08/12 10:52:59;;;;;;;4.67;2.20;;;29.40;37.10;;;;;;5021710;28;20904;-67
2022/08/12 10:55:27;;;;;;;3.80;2.03;;;29.70;35.80;;;;;;5014867;28;20439;-67
2022/08/12 10:57:54;;;;;;;4.00;1.70;;;29.70;33.00;;;;;;5022866;28;20793;-68
2022/08/12 11:00:20;;;;;;;3.93;1.77;;;29.80;34.10;;;;;;5023526;28;20492;-66
2022/08/12 11:02:53;;;;;;;3.70;1.70;;;29.90;33.00;;;;;;5023852;28;20529;-66
2022/08/12 11:05:20;;;;;;;4.27;1.70;;;29.90;32.10;;;;;;5024627;28;20485;-66
2022/08/12 11:07:49;;;;;;;5.73;1.70;;;29.90;32.40;;;;;;5024253;28;20450;-67
2022/08/12 11:10:20;;;;;;;4.60;2.20;;;30.00;33.40;;;;;;5020821;28;20435;-66
2022/08/12 11:12:49;;;;;;;4.23;1.60;;;30.00;32.50;;;;;;5025852;28;21020;-66
2022/08/12 11:15:16;;;;;;;3.07;1.53;;;30.00;31.10;;;;;;5022600;28;20525;-66
2022/08/12 11:17:44;;;;;;;4.00;1.70;;;29.80;32.00;;;;;;5026332;28;20830;-66
2022/08/12 11:20:12;;;;;;;3.87;1.70;;;29.60;31.60;;;;;;5020634;28;20450;-67
2022/08/12 11:22:39;;;;;;;2.70;1.80;;;29.50;32.80;;;;;;5022054;28;20450;-66
2022/08/12 11:25:09;;;;;;;3.40;2.17;;;29.40;34.00;;;;;;5022780;28;20513;-66
2022/08/12 11:27:36;;;;;;;3.47;1.77;;;29.40;34.70;;;;;;5020359;28;20442;-66
2022/08/12 11:30:06;;;;;;;3.20;2.40;;;29.30;35.10;;;;;;5024710;28;20529;-66
2022/08/12 11:32:34;;;;;;;4.57;2.87;;;29.40;35.60;;;;;;5023485;28;20433;-66
2022/08/12 11:35:01;;;;;;;3.53;1.77;;;29.40;36.50;;;;;;5025075;28;20447;-67
2022/08/12 11:37:30;;;;;;;4.07;1.70;;;29.60;36.80;;;;;;5024926;28;20520;-66
2022/08/12 11:40:01;;;;;;;5.73;2.00;;;29.50;36.50;;;;;;5023435;28;20937;-67
2022/08/12 11:42:28;;;;;;;2.33;1.70;;;29.20;34.80;;;;;;5023288;28;20458;-66
2022/08/12 11:44:55;;;;;;;3.40;2.07;;;29.00;36.30;;;;;;5025496;28;20580;-66
2022/08/12 11:47:23;;;;;;;9.60;2.27;;;29.00;36.80;;;;;;5012037;28;20872;-66
2022/08/12 11:49:50;;;;;;;3.23;1.80;;;28.80;35.40;;;;;;5019017;28;20533;-67
2022/08/12 11:52:17;;;;;;;4.47;2.20;;;28.60;37.50;;;;;;5022573;28;20453;-66
2022/08/12 11:54:46;;;;;;;5.47;2.07;;;28.70;37.70;;;;;;5016571;28;20538;-66
2022/08/12 11:57:13;;;;;;;6.67;1.90;;;28.80;38.60;;;;;;5020517;28;20529;-66
2022/08/12 11:59:40;;;;;;;2.90;1.80;;;28.90;37.30;;;;;;5018368;28;20533;-68
2022/08/12 12:02:08;;;;;;;3.27;1.87;;;29.00;37.00;;;;;;5019117;28;20843;-66
2022/08/12 12:04:35;;;;;;;4.67;1.93;;;29.00;36.60;;;;;;5023279;28;20839;-66
2022/08/12 12:07:02;;;;;;;4.20;2.17;;;29.00;36.20;;;;;;5018562;28;20449;-69
2022/08/12 12:09:30;;;;;;;4.47;2.60;;;29.10;37.20;;;;;;5010906;28;20443;-68
2022/08/12 12:11:59;;;;;;;3.97;1.93;;;29.20;37.50;;;;;;5007002;28;20446;-69
2022/08/12 12:14:27;;;;;;;3.63;2.00;;;29.20;35.70;;;;;;5010149;28;20531;-67
2022/08/12 12:16:54;;;;;;;4.80;2.20;;;29.10;36.80;;;;;;5012941;28;20443;-67
2022/08/12 12:19:21;;;;;;;4.50;1.77;;;29.00;35.90;;;;;;5020128;28;20832;-66
2022/08/12 12:21:48;;;;;;;4.23;1.90;;;29.00;36.20;;;;;;5022608;28;20490;-67
2022/08/12 12:24:15;;;;;;;6.33;1.90;;;28.90;36.70;;;;;;5023399;28;20532;-67
2022/08/12 12:26:42;;;;;;;7.93;1.50;;;28.90;36.30;;;;;;5021602;28;20466;-66
2022/08/12 12:29:10;;;;;;;3.40;1.93;;;28.80;36.10;;;;;;5024294;28;20469;-66
2022/08/12 12:31:37;;;;;;;6.47;1.73;;;28.80;36.20;;;;;;5022499;28;20522;-66
2022/08/12 12:34:04;;;;;;;4.40;1.40;;;28.80;36.40;;;;;;5025187;28;20529;-66
2022/08/12 12:36:31;;;;;;;2.70;1.40;;;28.80;36.10;;;;;;5021958;28;20886;-66
2022/08/12 12:38:58;;;;;;;3.73;1.60;;;28.90;35.40;;;;;;5021903;28;20533;-67
2022/08/12 12:41:25;;;;;;;4.80;1.50;;;28.90;36.20;;;;;;5025050;28;20529;-68
2022/08/12 12:43:52;;;;;;;3.17;1.90;;;29.00;36.20;;;;;;5022637;28;20924;-66
2022/08/12 12:46:20;;;;;;;2.93;1.83;;;29.00;34.60;;;;;;5020320;28;20924;-67
2022/08/12 12:48:47;;;;;;;4.00;1.70;;;29.00;34.30;;;;;;5023399;28;20502;-67
2022/08/12 12:51:17;;;;;;;4.10;1.77;;;28.90;34.10;;;;;;5023075;28;20530;-67
2022/08/12 12:53:46;;;;;;;2.77;1.40;;;28.70;34.60;;;;;;5023678;28;20473;-66
2022/08/12 12:56:19;;;;;;;2.77;1.60;;;28.70;34.10;;;;;;5019134;28;20439;-66
2022/08/12 12:58:48;;;;;;;4.70;2.10;;;28.60;34.20;;;;;;5023000;28;20819;-67
2022/08/12 13:01:17;;;;;;;2.97;1.50;;;28.60;34.90;;;;;;5022899;28;20461;-68
2022/08/12 13:03:47;;;;;;;4.00;2.27;;;28.50;34.70;;;;;;5023608;28;20520;-66
2022/08/12 13:06:14;;;;;;;5.70;1.70;;;28.50;34.50;;;;;;5021887;28;20517;-66
2022/08/12 13:08:42;;;;;;;4.83;1.80;;;28.40;34.90;;;;;;5022185;28;20880;-67
2022/08/12 13:11:10;;;;;;;3.33;1.80;;;28.40;35.80;;;;;;5020475;28;20438;-66
2022/08/12 13:13:37;;;;;;;2.83;1.60;;;28.50;36.30;;;;;;5017288;28;20449;-66
2022/08/12 13:16:06;;;;;;;4.17;1.60;;;28.50;36.70;;;;;;5024387;28;20473;-66
2022/08/12 13:18:36;;;;;;;4.30;2.00;;;28.50;35.40;;;;;;5021133;28;20488;-67
2022/08/12 13:21:07;;;;;;;2.87;1.70;;;28.30;34.30;;;;;;5021993;28;20529;-66
2022/08/12 13:23:36;;;;;;;3.43;1.30;;;28.20;34.50;;;;;;5016964;28;20982;-67
2022/08/12 13:26:03;;;;;;;4.57;1.43;;;28.20;34.50;;;;;;5020378;28;20875;-66
2022/08/12 13:28:31;;;;;;;3.93;1.63;;;28.10;36.60;;;;;;5022048;28;20528;-66
2022/08/12 13:30:59;;;;;;;5.17;1.40;;;28.10;36.00;;;;;;5023453;28;20506;-66
2022/08/12 13:33:28;;;;;;;2.83;1.70;;;28.00;35.40;;;;;;5022317;28;20445;-66
2022/08/12 13:35:59;;;;;;;3.00;1.80;;;27.90;37.20;;;;;;5023924;28;20445;-68
2022/08/12 13:38:38;;;;;;;3.10;1.67;;;27.80;35.80;;;;;;5022976;28;20821;-66
2022/08/12 13:41:06;;;;;;;3.43;2.03;;;27.80;37.20;;;;;;5021430;28;20443;-66
2022/08/12 13:43:33;;;;;;;4.20;1.50;;;27.80;37.20;;;;;;5023409;28;20478;-66
2022/08/12 13:46:00;;;;;;;2.50;1.50;;;27.90;36.50;;;;;;5019450;28;20580;-66
2022/08/12 13:48:28;;;;;;;3.17;1.80;;;27.90;35.50;;;;;;5022318;28;20540;-66
2022/08/12 13:50:56;;;;;;;3.73;1.73;;;27.80;35.00;;;;;;5022142;28;20465;-66
2022/08/12 13:53:23;;;;;;;4.70;1.60;;;27.70;35.50;;;;;;5022995;28;20546;-66
2022/08/12 13:55:52;;;;;;;2.60;1.40;;;27.60;34.90;;;;;;5020411;28;20870;-66
2022/08/12 13:58:21;;;;;;;3.13;1.80;;;27.60;36.00;;;;;;5023576;28;20445;-66
2022/08/12 14:00:51;;;;;;;7.97;1.63;;;27.60;35.80;;;;;;5020609;28;20533;-66
2022/08/12 14:03:18;;;;;;;3.23;1.70;;;27.40;36.00;;;;;;5023490;28;20446;-66
2022/08/12 14:05:45;;;;;;;4.40;1.30;;;27.40;36.10;;;;;;5019259;28;20576;-66
2022/08/12 14:08:14;;;;;;;3.90;1.93;;;27.40;36.20;;;;;;5017312;28;20526;-66
2022/08/12 14:10:45;;;;;;;2.50;1.57;;;27.40;36.30;;;;;;5023637;28;20926;-66
2022/08/12 14:13:16;;;;;;;5.60;1.50;;;27.50;36.60;;;;;;5017711;28;20489;-66
2022/08/12 14:15:47;;;;;;;4.40;1.70;;;27.60;35.60;;;;;;5016467;28;20446;-66
2022/08/12 14:18:15;;;;;;;4.93;1.90;;;27.60;37.00;;;;;;5020647;28;20458;-66
2022/08/12 14:20:44;;;;;;;2.87;1.40;;;27.60;36.70;;;;;;5023272;28;20540;-67
2022/08/12 14:23:13;;;;;;;3.00;1.63;;;27.60;36.90;;;;;;5020722;28;20482;-68
2022/08/12 14:25:46;;;;;;;3.20;1.40;;;27.60;36.60;;;;;;5021724;28;20565;-66
2022/08/12 14:28:16;;;;;;;2.80;1.70;;;27.60;36.20;;;;;;5020258;28;20450;-68
2022/08/12 14:30:45;;;;;;;2.50;1.43;;;27.60;36.20;;;;;;5023267;28;20469;-67
2022/08/12 14:33:14;;;;;;;3.87;1.50;;;27.60;34.80;;;;;;5020578;28;20454;-66
2022/08/12 14:35:41;;;;;;;7.53;1.87;;;27.60;34.50;;;;;;5019662;28;20469;-66
2022/08/12 14:38:16;;;;;;;3.10;1.90;;;27.60;34.50;;;;;;5022525;28;20442;-66
2022/08/12 14:40:44;;;;;;;6.43;2.10;;;27.50;34.90;;;;;;5018152;28;20517;-66
2022/08/12 14:43:15;;;;;;;3.93;1.73;;;27.60;36.10;;;;;;5018074;28;20447;-66
2022/08/12 14:45:43;;;;;;;2.73;1.43;;;27.60;34.90;;;;;;5020275;28;20573;-66